TimeCDT,TemperatureF,Dew PointF,Humidity,Sea Level PressureIn,VisibilityMPH,Wind Direction,Wind SpeedMPH,Gust SpeedMPH,PrecipitationIn,Events,Conditions,WindDirDegrees,DateUTC
12:51 AM,70.0,57.9,65,30.05,10.0,SE,6.9,-,N/A,,Overcast,130,2013-07-31 05:51:00
1:00 AM,69.8,59.0,68,30.06,10.0,SE,5.8,-,N/A,,Overcast,140,2013-07-31 06:00:00
1:51 AM,70.0,59.0,68,30.03,10.0,SE,6.9,-,N/A,,Overcast,130,2013-07-31 06:51:00
2:37 AM,69.8,60.8,73,30.04,10.0,SE,8.1,-,N/A,,Overcast,130,2013-07-31 07:37:00
2:51 AM,69.1,60.1,73,30.02,10.0,SE,6.9,-,N/A,,Overcast,140,2013-07-31 07:51:00
3:09 AM,69.8,60.8,73,30.04,10.0,SSE,8.1,-,N/A,,Overcast,150,2013-07-31 08:09:00
3:31 AM,66.2,62.6,88,30.04,2.0,SSE,5.8,-,0.01,,Light Drizzle,160,2013-07-31 08:31:00
3:51 AM,66.0,63.0,90,30.02,2.5,Calm,Calm,-,0.01,,Light Drizzle,0,2013-07-31 08:51:00
4:18 AM,66.2,62.6,88,30.02,2.0,Calm,Calm,-,0.02,,Light Drizzle,0,2013-07-31 09:18:00
4:41 AM,66.2,62.6,88,30.03,5.0,Calm,Calm,-,0.02,,Light Drizzle,0,2013-07-31 09:41:00
4:51 AM,66.0,63.0,90,30.01,5.0,Calm,Calm,-,0.02,,Overcast,0,2013-07-31 09:51:00
5:00 AM,66.2,62.6,88,30.03,1.5,Calm,Calm,-,0.00,,Light Drizzle,0,2013-07-31 10:00:00
5:51 AM,66.0,64.0,93,30.01,1.5,Calm,Calm,-,0.01,,Overcast,0,2013-07-31 10:51:00
5:58 AM,66.2,64.4,94,30.03,2.5,Calm,Calm,-,N/A,,Overcast,0,2013-07-31 10:58:00
6:27 AM,66.2,64.4,94,30.04,1.5,SW,3.5,-,N/A,,Overcast,230,2013-07-31 11:27:00
6:51 AM,66.0,64.0,93,30.02,1.2,Calm,Calm,-,0.00,,Light Drizzle,0,2013-07-31 11:51:00
7:16 AM,66.2,64.4,94,30.04,1.2,Calm,Calm,-,0.00,,Light Drizzle,0,2013-07-31 12:16:00
7:39 AM,66.2,64.4,94,30.03,2.5,Calm,Calm,-,0.01,,Overcast,0,2013-07-31 12:39:00
7:51 AM,66.9,64.0,90,30.01,2.5,Calm,Calm,-,0.01,,Overcast,0,2013-07-31 12:51:00
8:34 AM,66.2,64.4,94,30.03,2.5,Calm,Calm,-,N/A,,Overcast,0,2013-07-31 13:34:00
8:51 AM,68.0,64.9,90,30.01,2.5,Calm,Calm,-,N/A,,Overcast,0,2013-07-31 13:51:00
9:51 AM,69.1,64.9,87,30.00,3.0,NNW,5.8,-,N/A,,Overcast,330,2013-07-31 14:51:00
10:46 AM,69.8,64.4,83,30.02,5.0,WNW,6.9,-,N/A,,Haze,300,2013-07-31 15:46:00
10:51 AM,69.1,64.0,84,30.01,5.0,NW,5.8,-,N/A,,Haze,310,2013-07-31 15:51:00
11:51 AM,71.1,64.0,78,29.99,5.0,NNW,5.8,-,N/A,,Haze,340,2013-07-31 16:51:00
12:51 PM,71.1,64.0,78,29.99,5.0,NNW,4.6,-,N/A,,Haze,330,2013-07-31 17:51:00
1:51 PM,72.0,64.0,76,29.98,5.0,NNW,5.8,-,N/A,,Haze,330,2013-07-31 18:51:00
2:51 PM,72.0,64.0,76,29.98,6.0,NNW,8.1,-,N/A,,Haze,340,2013-07-31 19:51:00
3:51 PM,73.0,63.0,71,29.97,9.0,NW,5.8,-,N/A,,Overcast,310,2013-07-31 20:51:00
4:33 PM,73.4,62.6,69,29.98,9.0,NW,8.1,-,N/A,,Overcast,320,2013-07-31 21:33:00
4:51 PM,73.0,63.0,71,29.96,9.0,NW,8.1,-,N/A,,Overcast,310,2013-07-31 21:51:00
5:51 PM,73.0,62.1,68,29.96,10.0,WNW,8.1,-,N/A,,Mostly Cloudy,290,2013-07-31 22:51:00
6:51 PM,73.9,62.1,66,29.94,10.0,NW,4.6,-,N/A,,Scattered Clouds,320,2013-07-31 23:51:00
7:51 PM,73.0,62.1,68,29.94,10.0,West,4.6,-,N/A,,Scattered Clouds,280,2013-08-01 00:51:00
8:51 PM,72.0,63.0,73,29.95,10.0,WSW,4.6,-,N/A,,Mostly Cloudy,240,2013-08-01 01:51:00
9:16 PM,71.6,62.6,73,29.99,8.0,North,16.1,26.5,0.01,Rain-Thunderstorm,Light Thunderstorms and Rain,350,2013-08-01 02:16:00
9:51 PM,66.0,62.1,87,29.98,9.0,Calm,Calm,-,0.12,Rain,Light Rain,0,2013-08-01 02:51:00
10:51 PM,64.9,62.1,90,29.97,10.0,WSW,4.6,-,0.01,,Mostly Cloudy,250,2013-08-01 03:51:00
11:51 PM,64.9,62.1,90,29.97,9.0,WSW,4.6,-,N/A,,Partly Cloudy,250,2013-08-01 04:51:00